Time;durP1;ratioP1;P1;durP2;ratioP2;P2;SDS_P1;SDS_P2;PMS_P1;PMS_P2;Temp;Humidity;BMP_temperature;BMP_pressure;BME280_temperature;BME280_humidity;BME280_pressure;Samples;Min_cycle;Max_cycle;Signal;HPM_P1;HPM_P2
2022/07/03 00:01:56;;;;;;;7.82;4.13;;;16.80;99.90;;;;;;6195689;23;20051;-83
2022/07/03 00:04:21;;;;;;;8.32;4.03;;;16.70;99.90;;;;;;6247535;23;20391;-84
2022/07/03 00:06:47;;;;;;;8.75;3.85;;;16.80;99.90;;;;;;6220326;23;20062;-82
2022/07/03 00:09:13;;;;;;;6.28;4.00;;;16.80;99.90;;;;;;6246786;23;20027;-82
2022/07/03 00:11:39;;;;;;;9.02;3.50;;;16.90;99.90;;;;;;6247508;23;20019;-83
2022/07/03 00:14:05;;;;;;;4.82;3.50;;;16.80;99.90;;;;;;6219884;23;20027;-82
2022/07/03 00:16:30;;;;;;;5.38;3.30;;;16.70;99.90;;;;;;6220648;23;20023;-82
2022/07/03 00:18:56;;;;;;;8.05;3.55;;;16.70;99.90;;;;;;6247361;23;20471;-83
2022/07/03 00:21:31;;;;;;;6.65;3.13;;;16.70;99.90;;;;;;6246956;23;20451;-82
2022/07/03 00:24:03;;;;;;;4.13;2.53;;;16.70;99.90;;;;;;6247230;23;20246;-82
2022/07/03 00:26:34;;;;;;;4.28;3.00;;;16.60;99.90;;;;;;6195225;23;20016;-82
2022/07/03 00:29:01;;;;;;;4.65;3.28;;;16.60;99.90;;;;;;6220283;23;20052;-86
2022/07/03 00:31:30;;;;;;;4.70;3.08;;;16.50;99.90;;;;;;6247340;23;20361;-82
2022/07/03 00:33:58;;;;;;;4.88;3.03;;;16.50;99.90;;;;;;6247157;23;20016;-82
2022/07/03 00:36:26;;;;;;;4.53;2.80;;;16.40;99.90;;;;;;6247472;23;20091;-82
2022/07/03 00:38:52;;;;;;;5.70;2.70;;;16.40;99.90;;;;;;6220440;23;20027;-83
2022/07/03 00:41:27;;;;;;;6.20;2.83;;;16.30;99.90;;;;;;6246942;23;20016;-83
2022/07/03 00:43:52;;;;;;;7.80;2.70;;;16.30;99.90;;;;;;6219766;23;20444;-82
2022/07/03 00:46:22;;;;;;;4.15;2.55;;;16.20;99.90;;;;;;6247059;23;20055;-82
2022/07/03 00:48:50;;;;;;;5.03;2.90;;;16.10;99.90;;;;;;6247035;23;20335;-83
2022/07/03 00:51:22;;;;;;;4.97;2.78;;;16.00;99.90;;;;;;6247138;23;20016;-83
2022/07/03 00:53:54;;;;;;;4.20;2.60;;;16.00;99.90;;;;;;6246943;23;20440;-83
2022/07/03 00:56:31;;;;;;;4.50;2.50;;;15.90;99.90;;;;;;6246899;23;20023;-83
2022/07/03 00:58:58;;;;;;;4.93;2.78;;;15.90;99.90;;;;;;6246846;23;20094;-83
2022/07/03 01:01:36;;;;;;;3.25;2.60;;;15.80;99.90;;;;;;6220107;23;20012;-83
2022/07/03 01:04:21;;;;;;;6.72;2.97;;;15.80;99.90;;;;;;6246938;23;20051;-82
2022/07/03 01:06:57;;;;;;;6.10;3.15;;;15.70;99.90;;;;;;6195386;23;20020;-82
2022/07/03 01:09:53;;;;;;;4.03;2.50;;;15.60;99.90;;;;;;6219487;23;20062;-82
2022/07/03 01:12:36;;;;;;;4.95;2.78;;;15.60;99.90;;;;;;6124287;23;20058;-82
2022/07/03 01:15:11;;;;;;;6.65;3.00;;;15.50;99.90;;;;;;6099807;23;20022;-82
2022/07/03 01:17:56;;;;;;;4.97;3.05;;;15.40;99.90;;;;;;6124178;23;20465;-82
2022/07/03 01:20:27;;;;;;;5.47;2.70;;;15.30;99.90;;;;;;6099758;23;20483;-83
2022/07/03 01:22:57;;;;;;;4.82;2.90;;;15.30;99.90;;;;;;6124061;23;20025;-83
2022/07/03 01:25:24;;;;;;;4.63;3.28;;;15.30;99.90;;;;;;6075729;23;20026;-82
2022/07/03 01:28:25;;;;;;;6.72;2.97;;;15.20;99.90;;;;;;6124029;23;20018;-83
2022/07/03 01:30:53;;;;;;;4.70;3.22;;;15.10;99.90;;;;;;6037352;23;20023;-82
2022/07/03 01:33:24;;;;;;;5.53;3.30;;;15.10;99.90;;;;;;6037405;23;20034;-82
2022/07/03 01:36:01;;;;;;;8.30;3.50;;;15.10;99.90;;;;;;6036405;23;20038;-82
2022/07/03 01:38:35;;;;;;;5.47;4.03;;;15.00;99.90;;;;;;6037398;23;20019;-81
2022/07/03 01:41:03;;;;;;;8.55;3.83;;;15.00;99.90;;;;;;6037144;23;20023;-82
2022/07/03 01:43:33;;;;;;;6.78;3.90;;;15.00;99.90;;;;;;6013261;23;20087;-82
2022/07/03 01:46:01;;;;;;;10.90;4.30;;;15.00;99.90;;;;;;6037208;23;20019;-81
2022/07/03 01:48:28;;;;;;;6.10;4.28;;;14.90;99.90;;;;;;6049805;23;20101;-82
2022/07/03 01:50:56;;;;;;;6.28;4.75;;;14.90;99.90;;;;;;6099619;23;20018;-82
2022/07/03 01:53:25;;;;;;;5.60;4.15;;;14.90;99.90;;;;;;6099569;23;20025;-83
2022/07/03 01:55:57;;;;;;;5.25;4.13;;;14.90;99.90;;;;;;6099565;23;20088;-82
2022/07/03 01:58:23;;;;;;;8.48;4.47;;;14.90;99.90;;;;;;6123611;23;20018;-82
2022/07/03 02:01:04;;;;;;;8.05;4.90;;;14.80;99.90;;;;;;6124165;23;20022;-82
2022/07/03 02:03:34;;;;;;;6.45;4.10;;;14.70;99.90;;;;;;6099257;23;20029;-82
2022/07/03 02:06:05;;;;;;;10.07;4.50;;;14.70;99.90;;;;;;6218284;23;20042;-82
2022/07/03 02:08:37;;;;;;;7.93;4.07;;;14.60;99.90;;;;;;6246254;23;20016;-82
2022/07/03 02:11:17;;;;;;;4.35;3.60;;;14.60;99.90;;;;;;6219492;23;20063;-82
2022/07/03 02:14:25;;;;;;;4.65;4.00;;;14.50;99.90;;;;;;6246528;23;20016;-82
2022/07/03 02:17:17;;;;;;;6.75;3.80;;;14.50;99.90;;;;;;6123635;23;20057;-82
2022/07/03 02:19:59;;;;;;;5.40;3.88;;;14.40;99.90;;;;;;6123574;23;20022;-87
2022/07/03 02:22:33;;;;;;;8.07;4.15;;;14.30;99.90;;;;;;6123656;23;20061;-81
2022/07/03 02:25:06;;;;;;;8.85;4.20;;;14.30;99.90;;;;;;6075058;23;20506;-82
2022/07/03 02:27:42;;;;;;;6.80;3.97;;;14.20;99.90;;;;;;6098815;23;20025;-81
2022/07/03 02:30:09;;;;;;;5.88;3.90;;;14.20;99.90;;;;;;6123600;23;20021;-82
2022/07/03 02:32:45;;;;;;;6.38;4.10;;;14.20;99.90;;;;;;6123569;23;20029;-82
2022/07/03 02:35:17;;;;;;;5.20;3.63;;;14.10;99.90;;;;;;6123609;23;20490;-82
2022/07/03 02:37:52;;;;;;;6.50;5.00;;;14.10;99.90;;;;;;6099454;23;20423;-82
2022/07/03 02:40:30;;;;;;;8.70;5.90;;;14.20;99.90;;;;;;6123243;23;20022;-81
2022/07/03 02:43:23;;;;;;;7.03;5.30;;;14.30;99.90;;;;;;6123376;23;20018;-82
2022/07/03 02:45:55;;;;;;;10.00;6.00;;;14.30;99.90;;;;;;6036529;23;20030;-82
2022/07/03 02:48:44;;;;;;;8.60;5.25;;;14.40;99.90;;;;;;6012962;23;20120;-82
2022/07/03 02:51:19;;;;;;;8.93;6.20;;;14.30;99.90;;;;;;6040239;23;20071;-81
2022/07/03 02:54:01;;;;;;;8.88;5.90;;;14.40;99.90;;;;;;6123509;23;20024;-81
2022/07/03 02:56:58;;;;;;;11.18;5.95;;;14.30;99.90;;;;;;6098737;23;20061;-81
2022/07/03 03:00:00;;;;;;;7.18;5.70;;;14.20;99.90;;;;;;6123235;23;20049;-81
2022/07/03 03:02:38;;;;;;;7.88;6.25;;;14.10;99.90;;;;;;6123113;23;20025;-81
2022/07/03 03:05:15;;;;;;;7.35;6.22;;;14.00;99.90;;;;;;6098822;23;20150;-81
2022/07/03 03:08:07;;;;;;;9.32;6.80;;;13.90;99.90;;;;;;6123072;23;20022;-81
2022/07/03 03:10:37;;;;;;;6.47;5.78;;;13.90;99.90;;;;;;6122928;23;20069;-81
2022/07/03 03:13:11;;;;;;;8.10;6.00;;;13.80;99.90;;;;;;6122953;23;20102;-81
2022/07/03 03:15:38;;;;;;;10.73;6.50;;;13.80;99.90;;;;;;6123087;23;20029;-81
2022/07/03 03:18:10;;;;;;;8.65;6.50;;;13.80;99.90;;;;;;6098668;23;20025;-81
2022/07/03 03:20:38;;;;;;;10.02;7.13;;;13.70;99.90;;;;;;6123261;23;20017;-82
2022/07/03 03:23:22;;;;;;;6.53;5.88;;;13.70;99.90;;;;;;6198068;23;20088;-81
2022/07/03 03:25:51;;;;;;;7.20;6.45;;;13.60;99.90;;;;;;6245424;23;20016;-80
2022/07/03 03:28:17;;;;;;;8.95;6.43;;;13.70;99.90;;;;;;6218840;23;20359;-81
2022/07/03 03:30:42;;;;;;;8.27;6.65;;;13.70;99.90;;;;;;6245621;23;20073;-81
2022/07/03 03:33:10;;;;;;;7.25;6.55;;;13.70;99.90;;;;;;6245357;23;20458;-81
2022/07/03 03:35:36;;;;;;;9.02;7.28;;;13.60;99.90;;;;;;6245618;23;20019;-81
2022/07/03 03:38:03;;;;;;;10.70;6.78;;;13.60;99.90;;;;;;6218883;23;20452;-81
2022/07/03 03:40:28;;;;;;;10.07;7.22;;;13.60;99.90;;;;;;6218819;23;20344;-81
2022/07/03 03:42:54;;;;;;;12.20;6.78;;;13.60;99.90;;;;;;6218664;23;20019;-81
2022/07/03 03:45:20;;;;;;;8.75;6.80;;;13.60;99.90;;;;;;6218549;23;20016;-84
2022/07/03 03:47:48;;;;;;;9.57;6.90;;;13.70;99.90;;;;;;6245397;23;20023;-81
2022/07/03 03:50:14;;;;;;;7.47;6.78;;;13.70;99.90;;;;;;6217191;23;20016;-81
2022/07/03 03:52:40;;;;;;;9.90;7.53;;;13.60;99.90;;;;;;6218694;23;20056;-81
2022/07/03 03:55:08;;;;;;;7.85;7.05;;;13.70;99.90;;;;;;6245305;23;20091;-81
2022/07/03 03:57:34;;;;;;;8.13;6.97;;;13.70;99.90;;;;;;6218559;23;20031;-81
2022/07/03 04:00:00;;;;;;;7.97;6.80;;;13.80;99.90;;;;;;6218459;23;20440;-81
2022/07/03 04:02:26;;;;;;;11.98;6.72;;;13.90;99.90;;;;;;6245229;23;20447;-81
2022/07/03 04:04:51;;;;;;;9.95;6.82;;;13.90;99.90;;;;;;6245309;23;20024;-83
2022/07/03 04:07:17;;;;;;;8.25;6.00;;;14.00;99.90;;;;;;6218365;23;20090;-82
2022/07/03 04:09:44;;;;;;;6.97;6.22;;;14.00;99.90;;;;;;6245529;23;20028;-81
2022/07/03 04:12:10;;;;;;;10.05;5.88;;;14.10;99.90;;;;;;6245290;23;20027;-81
2022/07/03 04:14:36;;;;;;;10.68;6.03;;;14.20;99.90;;;;;;6245266;23;20364;-81
2022/07/03 04:17:02;;;;;;;7.88;5.90;;;14.30;99.90;;;;;;6244798;23;20016;-81
2022/07/03 04:19:28;;;;;;;9.50;5.82;;;14.40;99.90;;;;;;6218350;23;20452;-81
2022/07/03 04:21:54;;;;;;;7.35;6.07;;;14.50;99.90;;;;;;6218416;23;20019;-81
2022/07/03 04:24:19;;;;;;;12.32;6.00;;;14.60;99.90;;;;;;6245264;23;20051;-81
2022/07/03 04:26:45;;;;;;;8.57;5.88;;;14.70;99.90;;;;;;6245294;23;20055;-81
2022/07/03 04:29:11;;;;;;;6.05;4.65;;;14.70;99.90;;;;;;6193289;23;20073;-81
2022/07/03 04:31:36;;;;;;;6.30;5.65;;;14.70;99.90;;;;;;6217807;23;20058;-81
2022/07/03 04:34:02;;;;;;;7.72;6.95;;;14.70;99.90;;;;;;6218598;23;20379;-81
2022/07/03 04:36:28;;;;;;;8.00;7.20;;;14.70;99.90;;;;;;6218506;23;20095;-81
2022/07/03 04:38:55;;;;;;;9.85;7.05;;;14.60;99.90;;;;;;6245253;23;20058;-82
2022/07/03 04:41:20;;;;;;;10.10;8.05;;;14.60;99.90;;;;;;6245197;23;20081;-82
2022/07/03 04:43:46;;;;;;;11.85;7.82;;;14.50;99.90;;;;;;6245271;23;20551;-81
2022/07/03 04:46:12;;;;;;;8.35;7.55;;;14.50;99.90;;;;;;6246827;23;20012;-81
2022/07/03 04:48:38;;;;;;;10.60;7.85;;;14.50;99.90;;;;;;6220354;23;20012;-81
2022/07/03 04:51:03;;;;;;;8.45;7.25;;;14.50;99.90;;;;;;6246707;23;20519;-81
2022/07/03 04:53:29;;;;;;;13.45;8.38;;;14.40;99.90;;;;;;6246577;23;20052;-81
2022/07/03 04:55:55;;;;;;;8.95;7.70;;;14.40;99.90;;;;;;6247163;23;20020;-81
2022/07/03 04:58:21;;;;;;;11.57;8.18;;;14.30;99.90;;;;;;6247213;23;20016;-81
2022/07/03 05:00:46;;;;;;;8.85;7.63;;;14.20;99.90;;;;;;6246802;23;20486;-82
2022/07/03 05:03:12;;;;;;;10.35;7.97;;;14.20;99.90;;;;;;6195159;23;20012;-81
2022/07/03 05:05:38;;;;;;;9.82;7.30;;;14.20;99.90;;;;;;6246930;23;20020;-81
2022/07/03 05:08:04;;;;;;;12.27;7.88;;;14.20;99.90;;;;;;6247737;23;20022;-81
2022/07/03 05:10:30;;;;;;;9.95;7.65;;;14.30;99.90;;;;;;6246976;23;20438;-81
2022/07/03 05:12:56;;;;;;;7.53;5.60;;;14.30;99.90;;;;;;6247066;23;20051;-82
2022/07/03 05:15:23;;;;;;;8.55;5.82;;;14.40;99.90;;;;;;6219335;23;20513;-81
2022/07/03 05:17:48;;;;;;;6.45;5.25;;;14.50;99.90;;;;;;6246822;23;20349;-82
2022/07/03 05:20:29;;;;;;;8.55;6.00;;;14.60;99.90;;;;;;6194802;23;20016;-81
2022/07/03 05:23:01;;;;;;;8.15;5.68;;;14.80;99.90;;;;;;6246844;23;20016;-82
2022/07/03 05:25:29;;;;;;;7.43;5.30;;;15.00;99.90;;;;;;6220086;23;20443;-82
2022/07/03 05:27:55;;;;;;;6.03;4.55;;;15.20;99.90;;;;;;6246835;23;20016;-81
2022/07/03 05:30:23;;;;;;;5.90;4.30;;;15.40;99.90;;;;;;6220013;23;20383;-82
2022/07/03 05:32:49;;;;;;;10.07;4.30;;;15.60;99.90;;;;;;6247235;23;20016;-81
2022/07/03 05:35:15;;;;;;;11.70;4.95;;;15.80;99.90;;;;;;6219994;23;20412;-81
2022/07/03 05:37:40;;;;;;;8.27;3.85;;;16.10;99.90;;;;;;6220058;23;20016;-81
2022/07/03 05:40:07;;;;;;;8.30;3.75;;;16.30;99.90;;;;;;6246848;23;20016;-81
2022/07/03 05:42:33;;;;;;;5.93;3.55;;;16.50;99.90;;;;;;6246559;23;20012;-81
2022/07/03 05:44:59;;;;;;;5.85;3.67;;;16.70;99.90;;;;;;6194318;23;20023;-82
2022/07/03 05:47:25;;;;;;;4.70;2.95;;;16.90;99.90;;;;;;6219196;23;20047;-81
2022/07/03 05:49:51;;;;;;;4.85;2.60;;;17.10;99.90;;;;;;6246655;23;20016;-82
2022/07/03 05:52:17;;;;;;;4.30;2.40;;;17.20;99.90;;;;;;6246564;23;20095;-81
2022/07/03 05:54:43;;;;;;;3.33;2.10;;;17.40;99.90;;;;;;6219927;23;20058;-81
2022/07/03 05:57:09;;;;;;;4.03;2.35;;;17.60;99.90;;;;;;6219338;23;20016;-81
2022/07/03 05:59:34;;;;;;;5.78;2.13;;;17.80;99.90;;;;;;6246491;23;20349;-81
2022/07/03 06:02:01;;;;;;;5.30;2.25;;;17.90;99.90;;;;;;6219544;23;20386;-81
2022/07/03 06:04:26;;;;;;;6.05;2.10;;;18.20;99.90;;;;;;6246580;23;20020;-84
2022/07/03 06:06:54;;;;;;;5.60;1.90;;;18.50;99.90;;;;;;6246871;23;20331;-81
2022/07/03 06:09:20;;;;;;;3.92;2.00;;;18.60;99.90;;;;;;6219566;23;20020;-82
2022/07/03 06:11:47;;;;;;;5.95;2.05;;;18.60;99.90;;;;;;6219927;23;20047;-82
2022/07/03 06:14:13;;;;;;;4.43;2.45;;;18.50;99.90;;;;;;6247128;23;20470;-81
2022/07/03 06:16:39;;;;;;;4.10;2.15;;;18.30;99.90;;;;;;6247140;23;20046;-82
2022/07/03 06:19:05;;;;;;;4.75;2.40;;;18.20;99.90;;;;;;6220002;23;20336;-81
2022/07/03 06:21:31;;;;;;;6.90;2.70;;;18.30;99.90;;;;;;6220206;23;20020;-81
2022/07/03 06:23:57;;;;;;;6.60;2.92;;;18.30;99.90;;;;;;6221007;23;20309;-81
2022/07/03 06:26:23;;;;;;;3.28;2.85;;;18.50;99.90;;;;;;6248378;23;20016;-81
2022/07/03 06:28:48;;;;;;;4.82;2.78;;;18.60;99.90;;;;;;6247554;23;20336;-81
2022/07/03 06:31:14;;;;;;;4.18;2.80;;;18.70;99.90;;;;;;6247357;23;20110;-82
2022/07/03 06:33:40;;;;;;;6.18;2.97;;;18.80;99.90;;;;;;6247365;23;20013;-81
2022/07/03 06:36:06;;;;;;;4.85;2.60;;;19.00;99.90;;;;;;6247552;23;20023;-81
2022/07/03 06:38:31;;;;;;;5.13;2.60;;;19.10;99.90;;;;;;6246865;23;20047;-81
2022/07/03 06:40:57;;;;;;;3.95;2.25;;;19.20;99.90;;;;;;6246082;23;20432;-83
2022/07/03 06:43:22;;;;;;;8.35;2.85;;;19.40;99.90;;;;;;6219167;23;20048;-81
2022/07/03 06:45:48;;;;;;;4.20;2.60;;;19.60;99.90;;;;;;6219730;23;20019;-83
2022/07/03 06:48:14;;;;;;;4.65;2.70;;;19.80;99.90;;;;;;6219436;23;20020;-82
2022/07/03 06:50:39;;;;;;;4.38;2.60;;;20.10;99.90;;;;;;6246119;23;20095;-81
2022/07/03 06:53:05;;;;;;;5.57;2.33;;;20.50;99.90;;;;;;6219397;23;20020;-82
2022/07/03 06:55:31;;;;;;;3.78;2.42;;;20.80;99.90;;;;;;6245596;23;20440;-81
2022/07/03 06:57:56;;;;;;;9.18;2.30;;;21.10;99.90;;;;;;6245467;23;20032;-81
2022/07/03 07:00:22;;;;;;;5.13;2.05;;;21.40;99.90;;;;;;6246110;23;20020;-82
2022/07/03 07:02:47;;;;;;;4.60;1.52;;;21.70;99.90;;;;;;6218576;23;20406;-81
2022/07/03 07:05:13;;;;;;;4.78;1.80;;;22.00;99.90;;;;;;6246150;23;20459;-82
2022/07/03 07:07:39;;;;;;;5.22;1.40;;;22.30;99.90;;;;;;6245285;23;20102;-81
2022/07/03 07:10:05;;;;;;;4.68;1.70;;;22.50;99.90;;;;;;6245835;23;20024;-81
2022/07/03 07:12:31;;;;;;;2.00;1.13;;;22.80;99.90;;;;;;6218456;23;20012;-83
2022/07/03 07:14:56;;;;;;;3.10;1.38;;;23.10;99.90;;;;;;6219144;23;20099;-82
2022/07/03 07:17:22;;;;;;;2.80;1.38;;;23.50;99.90;;;;;;6193173;23;20024;-83
2022/07/03 07:19:47;;;;;;;3.03;1.50;;;23.80;99.90;;;;;;6218676;23;20016;-83
2022/07/03 07:22:13;;;;;;;2.85;1.00;;;23.90;99.90;;;;;;6245797;23;20051;-82
2022/07/03 07:24:39;;;;;;;4.45;1.20;;;23.90;99.90;;;;;;6218676;23;20400;-83
2022/07/03 07:27:04;;;;;;;5.13;1.38;;;24.10;98.00;;;;;;6245704;23;20467;-83
2022/07/03 07:29:30;;;;;;;2.65;1.08;;;24.40;96.50;;;;;;6218197;23;20020;-83
2022/07/03 07:31:56;;;;;;;4.47;1.10;;;24.70;92.80;;;;;;6218677;23;20069;-83
2022/07/03 07:34:21;;;;;;;2.80;1.23;;;25.10;89.50;;;;;;6245279;23;20016;-85
2022/07/03 07:36:47;;;;;;;2.55;1.17;;;25.50;89.70;;;;;;6246235;23;20051;-84
2022/07/03 07:39:13;;;;;;;5.30;1.30;;;25.90;86.10;;;;;;6245523;23;20016;-82
2022/07/03 07:41:38;;;;;;;3.58;1.48;;;26.40;82.90;;;;;;6219464;23;20402;-83
2022/07/03 07:44:04;;;;;;;2.65;1.58;;;26.70;82.30;;;;;;6246734;23;20062;-82
2022/07/03 07:46:31;;;;;;;3.05;1.40;;;27.00;73.70;;;;;;6245596;23;20024;-82
2022/07/03 07:48:57;;;;;;;3.95;1.20;;;27.30;72.50;;;;;;6245317;23;20024;-83
2022/07/03 07:51:22;;;;;;;3.33;1.17;;;27.60;69.90;;;;;;6245056;23;20515;-83
2022/07/03 07:53:50;;;;;;;3.38;0.95;;;28.10;70.30;;;;;;6245976;23;20047;-85
2022/07/03 07:56:16;;;;;;;3.78;1.00;;;28.40;64.90;;;;;;6193559;23;20020;-83
2022/07/03 07:58:42;;;;;;;3.90;1.15;;;28.20;64.70;;;;;;6245409;23;20099;-83
2022/07/03 08:06:35;;;;;;;4.50;0.80;;;25.70;75.40;;;;;;6218258;23;20078;-83
2022/07/03 08:09:02;;;;;;;4.13;1.23;;;24.90;84.70;;;;;;6218348;23;20024;-84
2022/07/03 08:11:27;;;;;;;5.97;1.10;;;24.40;91.00;;;;;;6245503;23;20024;-83
2022/07/03 08:13:53;;;;;;;2.78;1.10;;;24.10;93.60;;;;;;6218620;23;20502;-83
2022/07/03 08:16:19;;;;;;;3.80;1.00;;;24.20;96.30;;;;;;6219757;23;20031;-83
2022/07/03 08:18:44;;;;;;;2.28;0.82;;;24.90;92.30;;;;;;6246040;23;20016;-82
2022/07/03 08:21:15;;;;;;;4.25;1.00;;;26.00;83.60;;;;;;6247620;23;20024;-83
2022/07/03 08:23:41;;;;;;;4.30;1.10;;;26.90;69.40;;;;;;6247067;23;20016;-83
2022/07/03 08:26:07;;;;;;;4.35;1.13;;;27.60;65.60;;;;;;6220443;23;20095;-83
2022/07/03 08:28:32;;;;;;;3.10;0.98;;;27.90;61.50;;;;;;6247542;23;20066;-83
2022/07/03 08:30:58;;;;;;;2.70;1.10;;;28.40;60.80;;;;;;6247378;23;20016;-83
2022/07/03 08:33:24;;;;;;;2.35;0.80;;;28.80;59.00;;;;;;6247520;23;20020;-84
2022/07/03 08:35:49;;;;;;;2.45;0.90;;;29.20;57.50;;;;;;6247125;23;20427;-83
2022/07/03 08:38:15;;;;;;;2.25;0.80;;;30.00;56.10;;;;;;6247843;23;20020;-83
2022/07/03 08:40:44;;;;;;;1.90;0.70;;;30.40;55.60;;;;;;6220305;23;20008;-83
2022/07/03 08:43:09;;;;;;;3.38;1.00;;;29.80;53.70;;;;;;6220409;23;20020;-83
2022/07/03 08:45:37;;;;;;;2.67;1.00;;;28.70;56.50;;;;;;6195598;23;20410;-84
2022/07/03 08:48:05;;;;;;;2.60;0.70;;;27.80;57.60;;;;;;6220591;23;20309;-83
2022/07/03 08:50:34;;;;;;;3.17;1.08;;;27.30;59.80;;;;;;6220587;23;20052;-84
2022/07/03 08:53:00;;;;;;;4.50;1.20;;;26.60;62.00;;;;;;6220730;23;20056;-84
2022/07/03 08:55:26;;;;;;;4.32;1.30;;;26.10;66.40;;;;;;6220359;23;20016;-83
2022/07/03 08:57:55;;;;;;;5.13;1.48;;;26.50;68.60;;;;;;6250919;23;20022;-84
2022/07/03 09:00:21;;;;;;;2.97;0.88;;;27.40;64.80;;;;;;6247951;23;20051;-84
2022/07/03 09:02:49;;;;;;;4.97;0.98;;;28.50;61.60;;;;;;6247629;23;20039;-84
2022/07/03 09:05:16;;;;;;;3.22;1.08;;;29.40;57.10;;;;;;6247464;23;20016;-84
2022/07/03 09:07:44;;;;;;;2.38;0.90;;;30.00;56.00;;;;;;6247550;23;20085;-84
2022/07/03 09:10:12;;;;;;;3.33;0.88;;;30.60;53.50;;;;;;6247525;23;20024;-85
2022/07/03 09:12:39;;;;;;;1.85;0.75;;;31.10;52.50;;;;;;6221412;23;20024;-84
2022/07/03 09:15:08;;;;;;;2.92;0.65;;;31.10;50.60;;;;;;6220241;23;20032;-85
2022/07/03 09:17:34;;;;;;;2.45;0.90;;;31.30;50.50;;;;;;6220197;23;20027;-84
2022/07/03 09:20:05;;;;;;;2.60;0.80;;;31.70;47.90;;;;;;6220011;23;20024;-83
2022/07/03 09:22:34;;;;;;;3.00;0.95;;;31.40;47.00;;;;;;6220187;23;20432;-84
2022/07/03 09:25:06;;;;;;;2.65;0.90;;;31.00;48.60;;;;;;6220097;23;20019;-83
2022/07/03 09:27:32;;;;;;;3.58;1.00;;;31.20;48.00;;;;;;6219602;23;20023;-85
2022/07/03 09:30:00;;;;;;;3.13;0.80;;;31.40;47.00;;;;;;6195303;23;20059;-84
2022/07/03 09:32:36;;;;;;;3.95;0.90;;;30.90;47.40;;;;;;6220124;23;20103;-85
2022/07/03 09:35:15;;;;;;;2.65;0.70;;;30.70;47.30;;;;;;6220184;23;20313;-84
2022/07/03 09:37:48;;;;;;;2.70;0.60;;;31.30;46.30;;;;;;6246839;23;20051;-85
2022/07/03 09:40:14;;;;;;;2.83;0.90;;;32.00;45.00;;;;;;6220081;23;20012;-85
2022/07/03 09:42:39;;;;;;;2.58;0.70;;;32.00;46.30;;;;;;6193947;23;20459;-85
2022/07/03 09:45:05;;;;;;;2.05;0.70;;;32.30;45.50;;;;;;6219291;23;20023;-84
2022/07/03 09:47:31;;;;;;;1.45;0.55;;;32.30;44.40;;;;;;6246792;23;20318;-84
2022/07/03 09:49:58;;;;;;;2.08;0.70;;;32.20;43.90;;;;;;6247401;23;20026;-83
2022/07/03 09:52:35;;;;;;;1.70;0.70;;;32.10;43.40;;;;;;6219317;23;20047;-83
2022/07/03 09:55:11;;;;;;;1.30;0.60;;;31.80;43.90;;;;;;6246109;23;20428;-83
2022/07/03 09:57:42;;;;;;;1.60;0.52;;;32.00;43.80;;;;;;6246682;23;20024;-85
2022/07/03 10:00:09;;;;;;;1.77;0.60;;;32.20;44.20;;;;;;6195828;23;20016;-83
2022/07/03 10:02:35;;;;;;;1.88;0.68;;;32.30;43.80;;;;;;6246694;23;20181;-84
2022/07/03 10:05:13;;;;;;;3.05;0.70;;;32.50;44.40;;;;;;6246826;23;20067;-85
2022/07/03 10:08:11;;;;;;;2.20;0.77;;;32.70;44.10;;;;;;6246575;23;20020;-85
2022/07/03 10:10:41;;;;;;;2.58;0.80;;;31.90;45.00;;;;;;6124037;23;20034;-84
2022/07/03 10:13:07;;;;;;;3.40;0.90;;;31.20;45.90;;;;;;6123968;23;20323;-84
2022/07/03 10:15:37;;;;;;;3.25;1.70;;;31.30;47.00;;;;;;6124410;23;20018;-85
2022/07/03 10:18:06;;;;;;;1.25;0.80;;;31.60;45.90;;;;;;6123899;23;20022;-82
2022/07/03 10:20:36;;;;;;;5.00;1.10;;;31.90;45.60;;;;;;6098685;23;20026;-85
2022/07/03 10:23:03;;;;;;;4.90;0.90;;;31.30;46.30;;;;;;6099950;23;20065;-85
2022/07/03 10:25:30;;;;;;;1.65;0.75;;;30.30;47.10;;;;;;6124940;23;20418;-85
2022/07/03 10:27:56;;;;;;;1.65;0.70;;;29.40;48.90;;;;;;6125164;23;20018;-84
2022/07/03 10:30:23;;;;;;;4.38;0.80;;;29.50;49.60;;;;;;6124365;23;20028;-84
2022/07/03 10:32:50;;;;;;;4.70;0.90;;;30.40;47.40;;;;;;6123678;23;20028;-84
2022/07/03 10:35:20;;;;;;;2.55;0.88;;;31.00;46.50;;;;;;6099416;23;20028;-84
2022/07/03 10:38:07;;;;;;;2.47;0.80;;;31.50;45.50;;;;;;6123733;23;20105;-84
2022/07/03 10:46:34;;;;;;;5.60;0.90;;;28.90;50.20;;;;;;6179098;23;20483;-84
2022/07/03 10:49:01;;;;;;;1.48;0.70;;;28.30;53.20;;;;;;6219484;23;20047;-84
2022/07/03 10:51:32;;;;;;;0.85;0.50;;;28.20;52.80;;;;;;6219387;23;20024;-84
2022/07/03 10:54:14;;;;;;;3.13;0.65;;;28.20;53.20;;;;;;6245844;23;20502;-84
2022/07/03 10:57:00;;;;;;;2.22;0.85;;;29.40;52.20;;;;;;6193680;23;20465;-84
2022/07/03 10:59:31;;;;;;;3.17;0.88;;;30.70;52.30;;;;;;6098625;23;20030;-84
2022/07/03 11:02:34;;;;;;;2.97;0.70;;;31.60;50.00;;;;;;6123373;23;20046;-85
2022/07/03 11:05:00;;;;;;;2.60;1.23;;;32.30;46.40;;;;;;6098851;23;20093;-84
2022/07/03 11:07:32;;;;;;;1.27;0.80;;;33.00;46.10;;;;;;6098922;23;20029;-84
2022/07/03 11:10:10;;;;;;;2.65;0.70;;;33.50;45.70;;;;;;6123159;23;20057;-85
2022/07/03 11:13:04;;;;;;;3.35;0.60;;;33.90;46.00;;;;;;6098666;23;20333;-84
2022/07/03 11:15:46;;;;;;;0.98;0.60;;;34.50;43.90;;;;;;6098952;23;20022;-83
2022/07/03 11:18:27;;;;;;;2.10;0.80;;;34.00;42.60;;;;;;6123547;23;20026;-83
2022/07/03 11:20:52;;;;;;;0.75;0.50;;;33.50;41.00;;;;;;6098509;23;20018;-86
2022/07/03 11:23:26;;;;;;;1.80;0.50;;;33.40;42.50;;;;;;6123144;23;20065;-83
2022/07/03 11:26:12;;;;;;;1.63;0.70;;;33.50;42.20;;;;;;6098952;23;20022;-83
2022/07/03 11:28:37;;;;;;;0.93;0.65;;;33.70;42.30;;;;;;6097147;23;20021;-82
2022/07/03 11:31:15;;;;;;;2.38;0.70;;;33.90;41.80;;;;;;6122833;23;20036;-83
2022/07/03 11:33:45;;;;;;;3.38;0.80;;;34.00;40.80;;;;;;6123181;23;20099;-83
2022/07/03 11:36:14;;;;;;;2.10;0.77;;;34.10;41.10;;;;;;6155936;23;20074;-83
2022/07/03 11:38:41;;;;;;;3.97;0.60;;;34.20;40.60;;;;;;6214092;23;20096;-83
2022/07/03 11:41:09;;;;;;;1.67;0.70;;;34.40;41.70;;;;;;6215777;23;20255;-83
2022/07/03 11:43:35;;;;;;;2.33;0.60;;;34.50;41.10;;;;;;6215623;23;20013;-83
2022/07/03 11:46:01;;;;;;;1.60;0.90;;;34.60;41.40;;;;;;6215732;23;20051;-84
2022/07/03 11:48:28;;;;;;;2.00;0.80;;;34.50;42.30;;;;;;6216054;23;20062;-83
2022/07/03 11:51:03;;;;;;;4.20;1.00;;;34.40;42.00;;;;;;6215118;23;20453;-83
2022/07/03 11:53:36;;;;;;;3.20;1.02;;;34.30;42.80;;;;;;6188153;23;20020;-83
2022/07/03 11:56:04;;;;;;;3.20;0.90;;;34.50;45.00;;;;;;6213194;23;20017;-82
2022/07/03 11:58:51;;;;;;;3.42;0.95;;;34.90;43.90;;;;;;6212463;23;20441;-82
2022/07/03 12:01:26;;;;;;;2.40;1.02;;;34.80;42.50;;;;;;6213686;23;20024;-81
2022/07/03 12:03:51;;;;;;;4.85;1.13;;;33.30;43.80;;;;;;6213741;23;20337;-84
2022/07/03 12:06:18;;;;;;;5.63;1.60;;;32.40;47.20;;;;;;6206106;23;20029;-83
2022/07/03 12:08:47;;;;;;;4.40;1.30;;;32.40;45.90;;;;;;6213672;23;20055;-85
2022/07/03 12:11:17;;;;;;;2.40;0.70;;;31.80;46.60;;;;;;6214362;23;20020;-83
2022/07/03 12:13:43;;;;;;;2.10;1.00;;;31.40;47.80;;;;;;6214699;23;20017;-82
2022/07/03 12:16:14;;;;;;;3.90;1.00;;;31.20;47.50;;;;;;6221356;23;20239;-85
2022/07/03 12:18:51;;;;;;;3.28;1.05;;;30.50;49.20;;;;;;6218533;23;20043;-84
2022/07/03 12:21:18;;;;;;;3.03;0.90;;;29.60;50.90;;;;;;6213867;23;20389;-83
2022/07/03 12:23:53;;;;;;;3.53;0.75;;;28.70;53.00;;;;;;6188145;23;20020;-83
2022/07/03 12:26:33;;;;;;;2.47;0.80;;;27.80;54.80;;;;;;6214249;23;20087;-84
2022/07/03 12:29:01;;;;;;;4.63;1.08;;;26.90;56.50;;;;;;6213812;23;20056;-84
2022/07/03 12:31:31;;;;;;;3.28;0.90;;;26.20;58.40;;;;;;6213484;23;20131;-83
2022/07/03 12:33:58;;;;;;;2.22;0.80;;;25.70;62.70;;;;;;6213996;23;20456;-84
2022/07/03 12:36:24;;;;;;;4.68;1.00;;;25.40;65.40;;;;;;6206395;23;20111;-83
2022/07/03 12:38:56;;;;;;;4.60;0.80;;;25.30;67.70;;;;;;6205829;23;20031;-82
2022/07/03 12:41:23;;;;;;;5.43;1.10;;;25.70;71.20;;;;;;6210986;23;20020;-88
2022/07/03 12:43:50;;;;;;;2.88;1.02;;;27.40;64.50;;;;;;6211497;23;20421;-84
2022/07/03 12:46:19;;;;;;;1.83;0.90;;;29.10;57.20;;;;;;6213382;23;20067;-83
2022/07/03 12:48:52;;;;;;;4.18;1.08;;;30.50;52.60;;;;;;6212814;23;20017;-86
2022/07/03 12:51:43;;;;;;;3.90;0.80;;;31.40;50.80;;;;;;6212987;23;20018;-87
2022/07/03 12:54:13;;;;;;;3.17;0.80;;;32.10;48.40;;;;;;6214100;23;20020;-85
2022/07/03 12:56:43;;;;;;;2.83;0.90;;;32.20;46.40;;;;;;6213839;23;20429;-84
2022/07/03 12:59:28;;;;;;;3.47;1.13;;;31.10;47.90;;;;;;6212423;23;20059;-84
2022/07/03 13:02:02;;;;;;;2.75;0.70;;;29.80;48.80;;;;;;6211251;23;20087;-85
2022/07/03 13:04:38;;;;;;;1.88;0.75;;;28.60;51.30;;;;;;6212768;23;20020;-86
2022/07/03 13:07:08;;;;;;;1.27;0.60;;;27.80;54.60;;;;;;6214026;23;20467;-85
2022/07/03 13:09:36;;;;;;;3.58;0.80;;;27.10;56.20;;;;;;6240634;23;20432;-85
2022/07/03 13:12:03;;;;;;;6.45;0.90;;;26.50;59.40;;;;;;6219170;23;20020;-85